sensor_id;sensor_type;location;lat;lon;timestamp;temperature;humidity
67897;DHT22;54698;48.428;9.964;2022-10-17T00:01:16;12.00;99.90
67897;DHT22;54698;48.428;9.964;2022-10-17T00:03:42;11.90;99.90
67897;DHT22;54698;48.428;9.964;2022-10-17T00:06:10;11.80;99.90
67897;DHT22;54698;48.428;9.964;2022-10-17T00:08:38;11.70;99.90
67897;DHT22;54698;48.428;9.964;2022-10-17T00:11:07;11.50;99.90
67897;DHT22;54698;48.428;9.964;2022-10-17T00:13:36;11.40;99.90
67897;DHT22;54698;48.428;9.964;2022-10-17T00:16:04;11.20;99.90
67897;DHT22;54698;48.428;9.964;2022-10-17T00:18:30;11.10;99.90
67897;DHT22;54698;48.428;9.964;2022-10-17T00:20:56;11.10;99.90
67897;DHT22;54698;48.428;9.964;2022-10-17T00:23:22;11.10;99.90
67897;DHT22;54698;48.428;9.964;2022-10-17T00:25:56;11.10;99.90
67897;DHT22;54698;48.428;9.964;2022-10-17T00:28:23;11.20;99.90
67897;DHT22;54698;48.428;9.964;2022-10-17T00:30:54;11.20;99.90
67897;DHT22;54698;48.428;9.964;2022-10-17T00:33:22;11.20;99.90
67897;DHT22;54698;48.428;9.964;2022-10-17T00:35:47;11.10;99.90
67897;DHT22;54698;48.428;9.964;2022-10-17T00:38:13;11.10;99.90
67897;DHT22;54698;48.428;9.964;2022-10-17T00:40:39;11.10;99.90
67897;DHT22;54698;48.428;9.964;2022-10-17T00:43:12;11.20;99.90
67897;DHT22;54698;48.428;9.964;2022-10-17T00:45:40;11.20;99.90
67897;DHT22;54698;48.428;9.964;2022-10-17T00:48:08;11.20;99.90
67897;DHT22;54698;48.428;9.964;2022-10-17T00:50:38;11.30;99.90
67897;DHT22;54698;48.428;9.964;2022-10-17T00:53:07;11.30;99.90
67897;DHT22;54698;48.428;9.964;2022-10-17T00:55:37;11.40;99.90
67897;DHT22;54698;48.428;9.964;2022-10-17T00:58:07;11.40;99.90
67897;DHT22;54698;48.428;9.964;2022-10-17T01:00:33;11.30;99.90
67897;DHT22;54698;48.428;9.964;2022-10-17T01:03:02;11.20;99.90
67897;DHT22;54698;48.428;9.964;2022-10-17T01:05:28;11.10;99.90
67897;DHT22;54698;48.428;9.964;2022-10-17T01:07:55;11.00;99.90
67897;DHT22;54698;48.428;9.964;2022-10-17T01:10:25;10.90;99.90
67897;DHT22;54698;48.428;9.964;2022-10-17T01:13:02;10.70;99.90
67897;DHT22;54698;48.428;9.964;2022-10-17T01:15:38;10.70;99.90
67897;DHT22;54698;48.428;9.964;2022-10-17T01:18:17;10.80;99.90
67897;DHT22;54698;48.428;9.964;2022-10-17T01:21:01;10.80;99.90
67897;DHT22;54698;48.428;9.964;2022-10-17T01:24:04;10.80;99.90
67897;DHT22;54698;48.428;9.964;2022-10-17T01:29:51;11.00;99.90
67897;DHT22;54698;48.428;9.964;2022-10-17T01:32:38;11.00;99.90
67897;DHT22;54698;48.428;9.964;2022-10-17T01:35:09;11.10;99.90
67897;DHT22;54698;48.428;9.964;2022-10-17T01:37:42;11.20;99.90
67897;DHT22;54698;48.428;9.964;2022-10-17T01:40:14;11.30;99.90
67897;DHT22;54698;48.428;9.964;2022-10-17T01:42:50;11.30;99.90
67897;DHT22;54698;48.428;9.964;2022-10-17T01:45:22;11.30;99.90
67897;DHT22;54698;48.428;9.964;2022-10-17T01:47:55;11.40;99.90
67897;DHT22;54698;48.428;9.964;2022-10-17T01:50:24;11.40;99.90
67897;DHT22;54698;48.428;9.964;2022-10-17T01:52:58;11.30;99.90
67897;DHT22;54698;48.428;9.964;2022-10-17T01:55:29;11.20;99.90
67897;DHT22;54698;48.428;9.964;2022-10-17T01:58:01;11.10;99.90
67897;DHT22;54698;48.428;9.964;2022-10-17T02:00:29;11.00;99.90
67897;DHT22;54698;48.428;9.964;2022-10-17T02:02:59;11.00;99.90
67897;DHT22;54698;48.428;9.964;2022-10-17T02:05:30;10.90;99.90
67897;DHT22;54698;48.428;9.964;2022-10-17T02:07:58;10.90;99.90
67897;DHT22;54698;48.428;9.964;2022-10-17T02:10:32;10.90;99.90
67897;DHT22;54698;48.428;9.964;2022-10-17T02:13:05;11.00;99.90
67897;DHT22;54698;48.428;9.964;2022-10-17T02:16:02;11.00;99.90
67897;DHT22;54698;48.428;9.964;2022-10-17T02:19:04;10.90;99.90
67897;DHT22;54698;48.428;9.964;2022-10-17T02:21:43;10.80;99.90
67897;DHT22;54698;48.428;9.964;2022-10-17T02:24:16;10.50;99.90
67897;DHT22;54698;48.428;9.964;2022-10-17T02:26:49;10.30;99.90
67897;DHT22;54698;48.428;9.964;2022-10-17T02:29:20;10.10;99.90
67897;DHT22;54698;48.428;9.964;2022-10-17T02:31:53;9.90;99.90
67897;DHT22;54698;48.428;9.964;2022-10-17T02:34:25;9.80;99.90
67897;DHT22;54698;48.428;9.964;2022-10-17T02:36:57;9.80;99.90
67897;DHT22;54698;48.428;9.964;2022-10-17T02:39:25;9.70;99.90
67897;DHT22;54698;48.428;9.964;2022-10-17T02:41:55;9.70;99.90
67897;DHT22;54698;48.428;9.964;2022-10-17T02:44:23;9.70;99.90
67897;DHT22;54698;48.428;9.964;2022-10-17T02:46:54;9.80;99.90
67897;DHT22;54698;48.428;9.964;2022-10-17T02:49:28;9.80;99.90
67897;DHT22;54698;48.428;9.964;2022-10-17T02:52:00;9.90;99.90
67897;DHT22;54698;48.428;9.964;2022-10-17T02:54:33;10.00;99.90
67897;DHT22;54698;48.428;9.964;2022-10-17T02:57:06;10.10;99.90
67897;DHT22;54698;48.428;9.964;2022-10-17T02:59:36;10.20;99.90
67897;DHT22;54698;48.428;9.964;2022-10-17T03:02:03;10.20;99.90
67897;DHT22;54698;48.428;9.964;2022-10-17T03:04:30;10.20;99.90
67897;DHT22;54698;48.428;9.964;2022-10-17T03:06:56;10.10;99.90
67897;DHT22;54698;48.428;9.964;2022-10-17T03:09:22;10.20;99.90
67897;DHT22;54698;48.428;9.964;2022-10-17T03:11:48;10.20;99.90
67897;DHT22;54698;48.428;9.964;2022-10-17T03:14:14;10.40;99.90
67897;DHT22;54698;48.428;9.964;2022-10-17T03:16:40;10.40;99.90
67897;DHT22;54698;48.428;9.964;2022-10-17T03:19:06;10.50;99.90
67897;DHT22;54698;48.428;9.964;2022-10-17T03:21:33;10.40;99.90
67897;DHT22;54698;48.428;9.964;2022-10-17T03:23:59;10.40;99.90
67897;DHT22;54698;48.428;9.964;2022-10-17T03:26:25;10.30;99.90
67897;DHT22;54698;48.428;9.964;2022-10-17T03:28:50;10.10;99.90
67897;DHT22;54698;48.428;9.964;2022-10-17T03:31:16;9.90;99.90
67897;DHT22;54698;48.428;9.964;2022-10-17T03:33:42;9.70;99.90
67897;DHT22;54698;48.428;9.964;2022-10-17T03:36:10;9.40;99.90
67897;DHT22;54698;48.428;9.964;2022-10-17T03:38:39;9.30;99.90
67897;DHT22;54698;48.428;9.964;2022-10-17T03:41:06;9.30;99.90
67897;DHT22;54698;48.428;9.964;2022-10-17T03:43:32;9.20;99.90
67897;DHT22;54698;48.428;9.964;2022-10-17T03:45:59;9.10;99.90
67897;DHT22;54698;48.428;9.964;2022-10-17T03:48:26;9.10;99.90
67897;DHT22;54698;48.428;9.964;2022-10-17T03:50:57;9.10;99.90
67897;DHT22;54698;48.428;9.964;2022-10-17T03:53:24;9.10;99.90
67897;DHT22;54698;48.428;9.964;2022-10-17T03:55:51;9.10;99.90
67897;DHT22;54698;48.428;9.964;2022-10-17T03:58:17;9.40;99.90
67897;DHT22;54698;48.428;9.964;2022-10-17T04:00:43;9.50;99.90
67897;DHT22;54698;48.428;9.964;2022-10-17T04:03:08;9.60;99.90
67897;DHT22;54698;48.428;9.964;2022-10-17T04:05:34;9.70;99.90
67897;DHT22;54698;48.428;9.964;2022-10-17T04:08:00;9.60;99.90
67897;DHT22;54698;48.428;9.964;2022-10-17T04:10:26;9.50;99.90
67897;DHT22;54698;48.428;9.964;2022-10-17T04:12:53;9.40;99.90
67897;DHT22;54698;48.428;9.964;2022-10-17T04:15:19;9.30;99.90
67897;DHT22;54698;48.428;9.964;2022-10-17T04:17:45;9.20;99.90
67897;DHT22;54698;48.428;9.964;2022-10-17T04:20:11;9.10;99.90
67897;DHT22;54698;48.428;9.964;2022-10-17T04:22:37;9.20;99.90
67897;DHT22;54698;48.428;9.964;2022-10-17T04:25:03;9.30;99.90
67897;DHT22;54698;48.428;9.964;2022-10-17T04:27:30;9.40;99.90
67897;DHT22;54698;48.428;9.964;2022-10-17T04:29:57;9.40;99.90
67897;DHT22;54698;48.428;9.964;2022-10-17T04:32:23;9.30;99.90
67897;DHT22;54698;48.428;9.964;2022-10-17T04:34:49;9.10;99.90
67897;DHT22;54698;48.428;9.964;2022-10-17T04:37:15;8.90;99.90
67897;DHT22;54698;48.428;9.964;2022-10-17T04:39:41;8.80;99.90
67897;DHT22;54698;48.428;9.964;2022-10-17T04:42:07;8.80;99.90
67897;DHT22;54698;48.428;9.964;2022-10-17T04:44:33;8.70;99.90
67897;DHT22;54698;48.428;9.964;2022-10-17T04:47:01;8.70;99.90
67897;DHT22;54698;48.428;9.964;2022-10-17T04:49:27;8.70;99.90
67897;DHT22;54698;48.428;9.964;2022-10-17T04:51:53;8.70;99.90
67897;DHT22;54698;48.428;9.964;2022-10-17T04:54:19;8.80;99.90
67897;DHT22;54698;48.428;9.964;2022-10-17T04:56:45;8.90;99.90
67897;DHT22;54698;48.428;9.964;2022-10-17T04:59:10;9.00;99.90
67897;DHT22;54698;48.428;9.964;2022-10-17T05:01:36;9.10;99.90
67897;DHT22;54698;48.428;9.964;2022-10-17T05:04:03;9.20;99.90
67897;DHT22;54698;48.428;9.964;2022-10-17T05:06:29;9.30;99.90
67897;DHT22;54698;48.428;9.964;2022-10-17T05:08:56;9.50;99.90
67897;DHT22;54698;48.428;9.964;2022-10-17T05:11:24;9.80;99.90
67897;DHT22;54698;48.428;9.964;2022-10-17T05:13:53;10.10;99.90
67897;DHT22;54698;48.428;9.964;2022-10-17T05:16:20;10.10;99.90
67897;DHT22;54698;48.428;9.964;2022-10-17T05:18:47;9.90;99.90
67897;DHT22;54698;48.428;9.964;2022-10-17T05:21:15;9.60;99.90
67897;DHT22;54698;48.428;9.964;2022-10-17T05:23:41;9.50;99.90
67897;DHT22;54698;48.428;9.964;2022-10-17T05:26:06;9.40;99.90
67897;DHT22;54698;48.428;9.964;2022-10-17T05:28:33;9.40;99.90
67897;DHT22;54698;48.428;9.964;2022-10-17T05:31:02;9.40;99.90
67897;DHT22;54698;48.428;9.964;2022-10-17T05:33:28;9.50;99.90
67897;DHT22;54698;48.428;9.964;2022-10-17T05:35:54;9.50;99.90
67897;DHT22;54698;48.428;9.964;2022-10-17T05:38:21;9.50;99.90
67897;DHT22;54698;48.428;9.964;2022-10-17T05:40:47;9.30;99.90
67897;DHT22;54698;48.428;9.964;2022-10-17T05:43:12;9.20;99.90
67897;DHT22;54698;48.428;9.964;2022-10-17T05:45:38;9.10;99.90
67897;DHT22;54698;48.428;9.964;2022-10-17T05:48:04;9.00;99.90
67897;DHT22;54698;48.428;9.964;2022-10-17T05:50:30;9.10;99.90
67897;DHT22;54698;48.428;9.964;2022-10-17T05:52:56;9.20;99.90
67897;DHT22;54698;48.428;9.964;2022-10-17T05:55:24;9.30;99.90
67897;DHT22;54698;48.428;9.964;2022-10-17T05:57:50;9.30;99.90
67897;DHT22;54698;48.428;9.964;2022-10-17T06:00:16;9.30;99.90
67897;DHT22;54698;48.428;9.964;2022-10-17T06:02:42;9.40;99.90
67897;DHT22;54698;48.428;9.964;2022-10-17T06:05:08;9.40;99.90
67897;DHT22;54698;48.428;9.964;2022-10-17T06:07:34;9.50;99.90
67897;DHT22;54698;48.428;9.964;2022-10-17T06:10:00;9.60;99.90
67897;DHT22;54698;48.428;9.964;2022-10-17T06:12:27;9.80;99.90
67897;DHT22;54698;48.428;9.964;2022-10-17T06:14:53;9.90;99.90
67897;DHT22;54698;48.428;9.964;2022-10-17T06:17:19;9.70;99.90
67897;DHT22;54698;48.428;9.964;2022-10-17T06:19:45;9.50;99.90
67897;DHT22;54698;48.428;9.964;2022-10-17T06:22:11;9.40;99.90
67897;DHT22;54698;48.428;9.964;2022-10-17T06:24:37;9.50;99.90
67897;DHT22;54698;48.428;9.964;2022-10-17T06:27:03;9.50;99.90
67897;DHT22;54698;48.428;9.964;2022-10-17T06:29:30;9.50;99.90
67897;DHT22;54698;48.428;9.964;2022-10-17T06:31:56;9.60;99.90
67897;DHT22;54698;48.428;9.964;2022-10-17T06:34:21;9.60;99.90
67897;DHT22;54698;48.428;9.964;2022-10-17T06:36:47;9.70;99.90
67897;DHT22;54698;48.428;9.964;2022-10-17T06:39:13;9.70;99.90
67897;DHT22;54698;48.428;9.964;2022-10-17T06:41:39;9.80;99.90
67897;DHT22;54698;48.428;9.964;2022-10-17T06:44:13;9.90;99.90
67897;DHT22;54698;48.428;9.964;2022-10-17T06:46:40;10.10;99.90
67897;DHT22;54698;48.428;9.964;2022-10-17T06:49:06;10.30;99.90
67897;DHT22;54698;48.428;9.964;2022-10-17T06:51:34;10.60;99.90
67897;DHT22;54698;48.428;9.964;2022-10-17T06:54:08;10.90;99.90
67897;DHT22;54698;48.428;9.964;2022-10-17T06:56:34;10.90;99.90
67897;DHT22;54698;48.428;9.964;2022-10-17T06:58:59;10.80;99.90
67897;DHT22;54698;48.428;9.964;2022-10-17T07:01:25;10.70;99.90
67897;DHT22;54698;48.428;9.964;2022-10-17T07:03:52;10.50;99.90
67897;DHT22;54698;48.428;9.964;2022-10-17T07:06:18;10.40;99.90
67897;DHT22;54698;48.428;9.964;2022-10-17T07:08:44;10.40;99.90
67897;DHT22;54698;48.428;9.964;2022-10-17T07:11:11;10.30;99.90
67897;DHT22;54698;48.428;9.964;2022-10-17T07:13:38;10.30;99.90
67897;DHT22;54698;48.428;9.964;2022-10-17T07:16:04;10.40;99.90
67897;DHT22;54698;48.428;9.964;2022-10-17T07:18:30;10.50;99.90
67897;DHT22;54698;48.428;9.964;2022-10-17T07:20:58;10.60;99.90
67897;DHT22;54698;48.428;9.964;2022-10-17T07:23:24;10.70;99.90
67897;DHT22;54698;48.428;9.964;2022-10-17T07:25:52;10.90;99.90
67897;DHT22;54698;48.428;9.964;2022-10-17T07:28:23;11.20;99.90
67897;DHT22;54698;48.428;9.964;2022-10-17T07:30:49;11.60;99.90
67897;DHT22;54698;48.428;9.964;2022-10-17T07:33:14;11.90;99.90
67897;DHT22;54698;48.428;9.964;2022-10-17T07:35:40;12.20;99.90
67897;DHT22;54698;48.428;9.964;2022-10-17T07:38:08;12.50;99.90
67897;DHT22;54698;48.428;9.964;2022-10-17T07:40:34;12.70;99.90
67897;DHT22;54698;48.428;9.964;2022-10-17T07:43:09;12.90;99.90
67897;DHT22;54698;48.428;9.964;2022-10-17T07:45:34;13.10;99.90
67897;DHT22;54698;48.428;9.964;2022-10-17T07:48:00;13.40;99.90
67897;DHT22;54698;48.428;9.964;2022-10-17T07:50:26;13.50;99.90
67897;DHT22;54698;48.428;9.964;2022-10-17T07:52:52;13.60;99.90
67897;DHT22;54698;48.428;9.964;2022-10-17T07:55:21;13.90;99.90
67897;DHT22;54698;48.428;9.964;2022-10-17T07:57:50;14.20;99.90
67897;DHT22;54698;48.428;9.964;2022-10-17T08:00:22;14.40;99.90
67897;DHT22;54698;48.428;9.964;2022-10-17T08:02:48;14.60;99.90
67897;DHT22;54698;48.428;9.964;2022-10-17T08:05:14;14.90;99.90
67897;DHT22;54698;48.428;9.964;2022-10-17T08:07:40;14.90;99.90
67897;DHT22;54698;48.428;9.964;2022-10-17T08:10:07;15.30;99.90
67897;DHT22;54698;48.428;9.964;2022-10-17T08:12:34;15.60;99.90
67897;DHT22;54698;48.428;9.964;2022-10-17T08:15:00;15.80;99.90
67897;DHT22;54698;48.428;9.964;2022-10-17T08:17:26;16.00;99.90
67897;DHT22;54698;48.428;9.964;2022-10-17T08:19:52;16.20;99.90
67897;DHT22;54698;48.428;9.964;2022-10-17T08:22:17;16.40;99.90
67897;DHT22;54698;48.428;9.964;2022-10-17T08:24:43;16.60;99.90
67897;DHT22;54698;48.428;9.964;2022-10-17T08:27:09;16.80;99.90
67897;DHT22;54698;48.428;9.964;2022-10-17T08:29:36;17.10;99.90
67897;DHT22;54698;48.428;9.964;2022-10-17T08:32:03;17.40;99.90
67897;DHT22;54698;48.428;9.964;2022-10-17T08:34:28;17.60;99.90
67897;DHT22;54698;48.428;9.964;2022-10-17T08:36:54;17.90;99.90
67897;DHT22;54698;48.428;9.964;2022-10-17T08:39:20;17.90;99.90
67897;DHT22;54698;48.428;9.964;2022-10-17T08:41:55;17.90;99.90
67897;DHT22;54698;48.428;9.964;2022-10-17T08:44:41;18.00;99.90
67897;DHT22;54698;48.428;9.964;2022-10-17T08:47:13;18.10;99.90
67897;DHT22;54698;48.428;9.964;2022-10-17T08:49:47;18.10;99.90
67897;DHT22;54698;48.428;9.964;2022-10-17T08:52:20;18.00;99.90
67897;DHT22;54698;48.428;9.964;2022-10-17T08:54:51;18.00;99.90
67897;DHT22;54698;48.428;9.964;2022-10-17T08:57:18;18.20;99.90
67897;DHT22;54698;48.428;9.964;2022-10-17T08:59:49;18.20;99.90
67897;DHT22;54698;48.428;9.964;2022-10-17T09:02:37;18.30;99.90
67897;DHT22;54698;48.428;9.964;2022-10-17T09:05:26;18.50;99.90
67897;DHT22;54698;48.428;9.964;2022-10-17T09:08:12;18.50;99.90
67897;DHT22;54698;48.428;9.964;2022-10-17T09:10:53;18.60;99.90
67897;DHT22;54698;48.428;9.964;2022-10-17T09:13:37;18.70;99.90
67897;DHT22;54698;48.428;9.964;2022-10-17T09:16:31;18.80;99.90
67897;DHT22;54698;48.428;9.964;2022-10-17T09:19:10;18.90;99.90
67897;DHT22;54698;48.428;9.964;2022-10-17T09:21:43;19.10;99.90
67897;DHT22;54698;48.428;9.964;2022-10-17T09:24:14;19.50;99.90
67897;DHT22;54698;48.428;9.964;2022-10-17T09:26:43;19.70;99.90
67897;DHT22;54698;48.428;9.964;2022-10-17T09:29:20;19.60;99.90
67897;DHT22;54698;48.428;9.964;2022-10-17T09:31:55;19.70;99.90
67897;DHT22;54698;48.428;9.964;2022-10-17T09:34:24;19.90;99.90
67897;DHT22;54698;48.428;9.964;2022-10-17T09:36:51;20.20;99.90
67897;DHT22;54698;48.428;9.964;2022-10-17T09:39:18;20.50;99.90
67897;DHT22;54698;48.428;9.964;2022-10-17T09:41:49;20.70;99.90
67897;DHT22;54698;48.428;9.964;2022-10-17T09:44:18;20.60;99.90
67897;DHT22;54698;48.428;9.964;2022-10-17T09:47:06;20.60;99.90
67897;DHT22;54698;48.428;9.964;2022-10-17T09:49:41;20.60;99.90
67897;DHT22;54698;48.428;9.964;2022-10-17T09:52:11;20.80;99.90
67897;DHT22;54698;48.428;9.964;2022-10-17T09:54:42;20.80;99.90
67897;DHT22;54698;48.428;9.964;2022-10-17T09:57:11;21.10;99.90
67897;DHT22;54698;48.428;9.964;2022-10-17T09:59:40;21.00;99.90
67897;DHT22;54698;48.428;9.964;2022-10-17T10:02:15;21.00;99.90
67897;DHT22;54698;48.428;9.964;2022-10-17T10:04:57;20.90;99.90
67897;DHT22;54698;48.428;9.964;2022-10-17T10:07:26;20.90;99.90
67897;DHT22;54698;48.428;9.964;2022-10-17T10:09:54;20.90;99.90
67897;DHT22;54698;48.428;9.964;2022-10-17T10:12:22;20.70;99.90
67897;DHT22;54698;48.428;9.964;2022-10-17T10:14:49;20.70;99.90
67897;DHT22;54698;48.428;9.964;2022-10-17T10:17:38;20.80;99.90
67897;DHT22;54698;48.428;9.964;2022-10-17T10:20:24;20.60;99.90
67897;DHT22;54698;48.428;9.964;2022-10-17T10:23:11;20.50;99.90
67897;DHT22;54698;48.428;9.964;2022-10-17T10:25:49;21.00;99.90
67897;DHT22;54698;48.428;9.964;2022-10-17T10:28:18;21.40;99.90
67897;DHT22;54698;48.428;9.964;2022-10-17T10:30:47;21.70;99.90
67897;DHT22;54698;48.428;9.964;2022-10-17T10:33:18;22.10;99.90
67897;DHT22;54698;48.428;9.964;2022-10-17T10:35:52;22.00;99.90
67897;DHT22;54698;48.428;9.964;2022-10-17T10:38:20;21.90;99.90
67897;DHT22;54698;48.428;9.964;2022-10-17T10:40:47;21.80;99.90
67897;DHT22;54698;48.428;9.964;2022-10-17T10:43:26;21.60;99.90
67897;DHT22;54698;48.428;9.964;2022-10-17T10:45:57;21.80;99.90
67897;DHT22;54698;48.428;9.964;2022-10-17T10:48:26;21.70;99.90
67897;DHT22;54698;48.428;9.964;2022-10-17T10:50:56;22.00;99.90
67897;DHT22;54698;48.428;9.964;2022-10-17T10:53:37;22.40;99.90
67897;DHT22;54698;48.428;9.964;2022-10-17T10:56:10;22.60;99.90
67897;DHT22;54698;48.428;9.964;2022-10-17T10:58:46;23.10;99.90
67897;DHT22;54698;48.428;9.964;2022-10-17T11:01:24;23.70;98.70
67897;DHT22;54698;48.428;9.964;2022-10-17T11:04:07;24.20;98.60
67897;DHT22;54698;48.428;9.964;2022-10-17T11:06:42;25.10;97.50
67897;DHT22;54698;48.428;9.964;2022-10-17T11:09:27;26.10;94.70
67897;DHT22;54698;48.428;9.964;2022-10-17T11:12:00;27.30;91.70
67897;DHT22;54698;48.428;9.964;2022-10-17T11:14:38;27.60;89.50
67897;DHT22;54698;48.428;9.964;2022-10-17T11:17:11;28.00;85.60
67897;DHT22;54698;48.428;9.964;2022-10-17T11:19:46;28.40;82.30
67897;DHT22;54698;48.428;9.964;2022-10-17T11:22:15;27.60;83.70
67897;DHT22;54698;48.428;9.964;2022-10-17T11:24:51;27.30;82.50
67897;DHT22;54698;48.428;9.964;2022-10-17T11:27:20;27.40;84.10
67897;DHT22;54698;48.428;9.964;2022-10-17T11:29:46;27.80;83.30
67897;DHT22;54698;48.428;9.964;2022-10-17T11:32:14;28.00;81.20
67897;DHT22;54698;48.428;9.964;2022-10-17T11:34:46;28.20;80.30
67897;DHT22;54698;48.428;9.964;2022-10-17T11:37:17;28.60;77.00
67897;DHT22;54698;48.428;9.964;2022-10-17T11:39:50;29.00;75.60
67897;DHT22;54698;48.428;9.964;2022-10-17T11:42:19;28.80;73.60
67897;DHT22;54698;48.428;9.964;2022-10-17T11:44:51;28.40;76.10
67897;DHT22;54698;48.428;9.964;2022-10-17T11:47:27;28.30;78.20
67897;DHT22;54698;48.428;9.964;2022-10-17T11:50:01;28.10;76.30
67897;DHT22;54698;48.428;9.964;2022-10-17T11:52:34;28.00;75.90
67897;DHT22;54698;48.428;9.964;2022-10-17T11:55:10;28.20;74.90
67897;DHT22;54698;48.428;9.964;2022-10-17T11:57:50;28.50;75.60
67897;DHT22;54698;48.428;9.964;2022-10-17T12:00:47;29.10;72.80
67897;DHT22;54698;48.428;9.964;2022-10-17T12:03:32;29.60;70.40
67897;DHT22;54698;48.428;9.964;2022-10-17T12:06:10;29.60;68.60
67897;DHT22;54698;48.428;9.964;2022-10-17T12:08:45;29.50;68.90
67897;DHT22;54698;48.428;9.964;2022-10-17T12:11:25;28.80;69.80
67897;DHT22;54698;48.428;9.964;2022-10-17T12:13:55;28.10;71.90
67897;DHT22;54698;48.428;9.964;2022-10-17T12:16:48;27.90;73.60
67897;DHT22;54698;48.428;9.964;2022-10-17T12:19:35;28.70;71.20
67897;DHT22;54698;48.428;9.964;2022-10-17T12:22:05;29.70;68.10
67897;DHT22;54698;48.428;9.964;2022-10-17T12:24:53;30.30;66.40
67897;DHT22;54698;48.428;9.964;2022-10-17T12:30:18;29.70;65.40
67897;DHT22;54698;48.428;9.964;2022-10-17T12:32:54;29.90;64.80
67897;DHT22;54698;48.428;9.964;2022-10-17T12:35:26;30.20;63.60
67897;DHT22;54698;48.428;9.964;2022-10-17T12:38:02;30.80;60.60
67897;DHT22;54698;48.428;9.964;2022-10-17T12:40:51;31.10;59.30
67897;DHT22;54698;48.428;9.964;2022-10-17T12:43:53;31.00;58.20
67897;DHT22;54698;48.428;9.964;2022-10-17T12:46:45;31.20;60.00
67897;DHT22;54698;48.428;9.964;2022-10-17T12:49:40;31.70;57.80
67897;DHT22;54698;48.428;9.964;2022-10-17T12:52:26;31.90;56.10
67897;DHT22;54698;48.428;9.964;2022-10-17T12:55:15;31.60;55.90
67897;DHT22;54698;48.428;9.964;2022-10-17T12:57:49;31.10;56.70
67897;DHT22;54698;48.428;9.964;2022-10-17T13:00:26;31.00;57.20
67897;DHT22;54698;48.428;9.964;2022-10-17T13:03:02;31.20;56.10
67897;DHT22;54698;48.428;9.964;2022-10-17T13:05:37;31.40;57.20
67897;DHT22;54698;48.428;9.964;2022-10-17T13:08:07;31.50;57.20
67897;DHT22;54698;48.428;9.964;2022-10-17T13:10:48;31.70;55.40
67897;DHT22;54698;48.428;9.964;2022-10-17T13:13:19;31.10;56.70
67897;DHT22;54698;48.428;9.964;2022-10-17T13:15:46;30.70;57.20
67897;DHT22;54698;48.428;9.964;2022-10-17T13:18:18;31.00;56.30
67897;DHT22;54698;48.428;9.964;2022-10-17T13:20:59;30.80;56.10
67897;DHT22;54698;48.428;9.964;2022-10-17T13:23:33;31.10;55.40
67897;DHT22;54698;48.428;9.964;2022-10-17T13:26:05;31.70;55.00
67897;DHT22;54698;48.428;9.964;2022-10-17T13:28:36;32.30;53.60
67897;DHT22;54698;48.428;9.964;2022-10-17T13:31:03;32.50;52.20
67897;DHT22;54698;48.428;9.964;2022-10-17T13:33:32;32.20;52.20
67897;DHT22;54698;48.428;9.964;2022-10-17T13:36:01;32.20;52.20
67897;DHT22;54698;48.428;9.964;2022-10-17T13:38:29;32.50;51.50
67897;DHT22;54698;48.428;9.964;2022-10-17T13:40:56;32.20;51.00
67897;DHT22;54698;48.428;9.964;2022-10-17T13:43:24;33.00;51.10
67897;DHT22;54698;48.428;9.964;2022-10-17T13:45:51;33.20;49.50
67897;DHT22;54698;48.428;9.964;2022-10-17T13:48:21;32.90;49.80
67897;DHT22;54698;48.428;9.964;2022-10-17T13:50:51;32.80;49.60
67897;DHT22;54698;48.428;9.964;2022-10-17T13:53:23;32.10;50.00
67897;DHT22;54698;48.428;9.964;2022-10-17T13:55:56;31.50;52.00
67897;DHT22;54698;48.428;9.964;2022-10-17T13:58:26;31.20;52.60
67897;DHT22;54698;48.428;9.964;2022-10-17T14:00:55;31.50;53.10
67897;DHT22;54698;48.428;9.964;2022-10-17T14:03:22;31.70;50.90
67897;DHT22;54698;48.428;9.964;2022-10-17T14:06:04;31.80;50.50
67897;DHT22;54698;48.428;9.964;2022-10-17T14:08:38;31.60;50.30
67897;DHT22;54698;48.428;9.964;2022-10-17T14:11:13;31.80;51.10
67897;DHT22;54698;48.428;9.964;2022-10-17T14:13:47;31.90;51.40
67897;DHT22;54698;48.428;9.964;2022-10-17T14:16:14;32.00;50.70
67897;DHT22;54698;48.428;9.964;2022-10-17T14:18:40;32.20;50.90
67897;DHT22;54698;48.428;9.964;2022-10-17T14:21:06;31.70;52.00
67897;DHT22;54698;48.428;9.964;2022-10-17T14:23:35;31.80;52.00
67897;DHT22;54698;48.428;9.964;2022-10-17T14:26:11;31.60;52.10
67897;DHT22;54698;48.428;9.964;2022-10-17T14:28:40;32.00;51.70
67897;DHT22;54698;48.428;9.964;2022-10-17T14:31:16;32.10;52.10
67897;DHT22;54698;48.428;9.964;2022-10-17T14:33:46;32.20;52.00
67897;DHT22;54698;48.428;9.964;2022-10-17T14:36:15;31.40;52.20
67897;DHT22;54698;48.428;9.964;2022-10-17T14:38:44;30.30;53.80
67897;DHT22;54698;48.428;9.964;2022-10-17T14:41:14;28.90;56.70
67897;DHT22;54698;48.428;9.964;2022-10-17T14:43:43;28.10;59.40
67897;DHT22;54698;48.428;9.964;2022-10-17T14:46:14;27.30;62.10
67897;DHT22;54698;48.428;9.964;2022-10-17T14:48:40;26.60;63.40
67897;DHT22;54698;48.428;9.964;2022-10-17T14:51:08;26.00;67.90
67897;DHT22;54698;48.428;9.964;2022-10-17T14:53:35;25.70;66.10
67897;DHT22;54698;48.428;9.964;2022-10-17T14:56:04;25.30;67.30
67897;DHT22;54698;48.428;9.964;2022-10-17T14:58:45;24.90;72.10
67897;DHT22;54698;48.428;9.964;2022-10-17T15:01:11;24.60;69.20
67897;DHT22;54698;48.428;9.964;2022-10-17T15:03:38;24.40;70.20
67897;DHT22;54698;48.428;9.964;2022-10-17T15:06:14;24.40;74.70
67897;DHT22;54698;48.428;9.964;2022-10-17T15:08:42;24.10;73.00
67897;DHT22;54698;48.428;9.964;2022-10-17T15:11:09;23.90;76.70
67897;DHT22;54698;48.428;9.964;2022-10-17T15:13:35;23.80;80.10
67897;DHT22;54698;48.428;9.964;2022-10-17T15:16:01;23.70;81.50
67897;DHT22;54698;48.428;9.964;2022-10-17T15:18:28;23.50;81.20
67897;DHT22;54698;48.428;9.964;2022-10-17T15:20:54;23.30;81.40
67897;DHT22;54698;48.428;9.964;2022-10-17T15:23:20;23.20;82.00
67897;DHT22;54698;48.428;9.964;2022-10-17T15:25:46;23.00;82.90
67897;DHT22;54698;48.428;9.964;2022-10-17T15:28:13;22.90;84.40
67897;DHT22;54698;48.428;9.964;2022-10-17T15:30:39;22.80;85.10
67897;DHT22;54698;48.428;9.964;2022-10-17T15:33:04;22.60;84.70
67897;DHT22;54698;48.428;9.964;2022-10-17T15:35:32;22.60;83.90
67897;DHT22;54698;48.428;9.964;2022-10-17T15:37:58;22.50;84.20
67897;DHT22;54698;48.428;9.964;2022-10-17T15:40:25;22.40;85.20
67897;DHT22;54698;48.428;9.964;2022-10-17T15:42:52;22.30;85.70
67897;DHT22;54698;48.428;9.964;2022-10-17T15:45:19;22.30;90.60
67897;DHT22;54698;48.428;9.964;2022-10-17T15:47:49;22.20;90.90
67897;DHT22;54698;48.428;9.964;2022-10-17T15:50:16;22.10;91.20
67897;DHT22;54698;48.428;9.964;2022-10-17T15:52:44;22.00;94.50
67897;DHT22;54698;48.428;9.964;2022-10-17T15:55:10;21.90;95.30
67897;DHT22;54698;48.428;9.964;2022-10-17T15:57:40;21.80;95.00
67897;DHT22;54698;48.428;9.964;2022-10-17T16:00:15;21.70;97.60
67897;DHT22;54698;48.428;9.964;2022-10-17T16:02:43;21.60;96.90